createdAt,value
2022-11-05T00:03:45.634Z,15.43
2022-11-05T00:06:49.113Z,15.07
2022-11-05T00:09:35.113Z,15.25
2022-11-05T00:12:38.366Z,15.30
2022-11-05T00:15:41.737Z,14.60
2022-11-05T00:18:26.738Z,15.32
2022-11-05T00:21:30.391Z,15.23
2022-11-05T00:27:20.478Z,14.18
2022-11-05T00:30:06.972Z,13.43
2022-11-05T00:32:52.930Z,14.48
2022-11-05T00:35:37.946Z,15.02
2022-11-05T00:38:23.517Z,13.82
2022-11-05T00:41:08.474Z,14.48
2022-11-05T00:44:12.068Z,14.68
2022-11-05T00:50:01.703Z,12.88
2022-11-05T00:52:55.205Z,13.98
2022-11-05T00:55:42.628Z,12.57
2022-11-05T00:58:28.542Z,14.38
2022-11-05T01:01:14.375Z,15.02
2022-11-05T01:03:59.002Z,14.07
2022-11-05T01:06:44.389Z,13.90
2022-11-05T01:09:28.944Z,14.25
2022-11-05T01:12:14.011Z,15.30
2022-11-05T01:15:00.285Z,14.43
2022-11-05T01:17:45.058Z,14.38
2022-11-05T01:20:30.475Z,16.05
2022-11-05T01:23:16.470Z,14.48
2022-11-05T01:26:01.530Z,14.55
2022-11-05T01:28:51.306Z,13.65
2022-11-05T01:31:36.025Z,15.07
2022-11-05T01:34:21.008Z,15.00
2022-11-05T01:37:06.047Z,14.80
2022-11-05T01:39:51.032Z,16.10
2022-11-05T01:42:35.983Z,15.10
2022-11-05T01:45:26.829Z,13.80
2022-11-05T01:48:32.545Z,15.27
2022-11-05T01:51:21.195Z,13.70
2022-11-05T01:54:10.831Z,14.38
2022-11-05T01:57:00.976Z,15.48
2022-11-05T01:59:54.015Z,14.57
2022-11-05T02:02:39.403Z,14.75
2022-11-05T02:05:28.059Z,14.90
2022-11-05T02:08:24.337Z,14.27
2022-11-05T02:11:12.939Z,14.63
2022-11-05T02:13:57.658Z,13.95
2022-11-05T02:16:54.898Z,14.40
2022-11-05T02:22:58.452Z,12.82
2022-11-05T02:26:04.940Z,14.60
2022-11-05T02:28:49.478Z,14.02
2022-11-05T02:32:03.351Z,14.60
2022-11-05T02:34:58.255Z,15.25
2022-11-05T02:37:53.756Z,13.80
2022-11-05T02:40:53.906Z,15.10
2022-11-05T02:43:44.641Z,16.25
2022-11-05T02:46:53.061Z,16.63
2022-11-05T02:49:37.836Z,14.63
2022-11-05T02:55:39.684Z,14.50
2022-11-05T02:58:28.512Z,15.02
2022-11-05T03:01:13.825Z,14.02
2022-11-05T03:04:05.794Z,13.48
2022-11-05T03:06:57.088Z,13.50
2022-11-05T03:09:49.367Z,14.38
2022-11-05T03:12:57.935Z,13.50
2022-11-05T03:15:54.973Z,14.38
2022-11-05T03:18:45.576Z,14.32
2022-11-05T03:21:45.837Z,13.60
2022-11-05T03:24:33.870Z,14.20
2022-11-05T03:27:26.698Z,14.73
2022-11-05T03:30:13.354Z,13.45
2022-11-05T03:33:02.767Z,13.65
2022-11-05T03:35:55.761Z,14.43
2022-11-05T03:38:43.511Z,14.20
2022-11-05T03:41:29.374Z,13.65
2022-11-05T03:44:21.381Z,14.73
2022-11-05T03:47:12.203Z,15.25
2022-11-05T03:50:12.430Z,14.98
2022-11-05T03:53:03.828Z,13.52
2022-11-05T03:56:23.210Z,13.88
2022-11-05T03:59:10.237Z,13.88
2022-11-05T04:01:55.787Z,15.65
2022-11-05T04:04:41.144Z,14.90
2022-11-05T04:07:44.403Z,14.57
2022-11-05T04:10:47.297Z,15.10
2022-11-05T04:13:32.876Z,14.45
2022-11-05T04:16:36.381Z,15.68
2022-11-05T04:22:47.042Z,13.95
2022-11-05T04:25:32.151Z,14.52
2022-11-05T04:28:17.217Z,15.45
2022-11-05T04:31:01.777Z,15.73
2022-11-05T04:33:46.660Z,15.75
2022-11-05T04:36:31.646Z,16.25
2022-11-05T04:39:17.625Z,15.77
2022-11-05T04:42:02.600Z,14.98
2022-11-05T04:44:47.643Z,14.95
2022-11-05T04:47:32.585Z,15.50
2022-11-05T04:50:17.783Z,13.50
2022-11-05T04:53:02.766Z,14.60
2022-11-05T04:55:47.528Z,13.73
2022-11-05T04:58:32.313Z,15.32
2022-11-05T05:04:03.418Z,14.60
2022-11-05T05:06:48.282Z,13.60
2022-11-05T05:09:33.307Z,13.18
2022-11-05T05:12:18.274Z,13.13
2022-11-05T05:15:04.532Z,13.77
2022-11-05T05:17:51.193Z,14.35
2022-11-05T05:20:54.403Z,14.93
2022-11-05T05:26:23.809Z,13.45
2022-11-05T05:29:10.240Z,15.85
2022-11-05T05:31:54.793Z,16.80
2022-11-05T05:34:39.930Z,15.48
2022-11-05T05:37:24.849Z,14.20
2022-11-05T05:40:10.569Z,14.52
2022-11-05T05:42:55.560Z,13.77
2022-11-05T05:45:40.453Z,13.73
2022-11-05T05:48:25.471Z,14.00
2022-11-05T05:51:11.260Z,13.32
2022-11-05T05:53:56.267Z,13.02
2022-11-05T05:56:45.147Z,13.50
2022-11-05T05:59:29.919Z,13.68
2022-11-05T06:02:15.204Z,15.40
2022-11-05T06:04:59.852Z,13.93
2022-11-05T06:07:44.916Z,15.13
2022-11-05T06:10:29.889Z,13.80
2022-11-05T06:13:14.785Z,14.98
2022-11-05T06:16:09.467Z,14.73
2022-11-05T06:18:54.079Z,15.25
2022-11-05T06:21:38.969Z,15.48
2022-11-05T06:24:24.122Z,17.38
2022-11-05T06:27:08.933Z,15.85
2022-11-05T06:29:54.028Z,17.33
2022-11-05T06:32:38.947Z,17.73
2022-11-05T06:35:23.949Z,17.48
2022-11-05T06:38:08.834Z,17.70
2022-11-05T06:40:53.382Z,17.20
2022-11-05T06:43:38.441Z,18.00
2022-11-05T06:46:23.166Z,17.08
2022-11-05T06:49:08.216Z,19.17
2022-11-05T06:51:53.235Z,17.67
2022-11-05T06:54:38.562Z,18.15
2022-11-05T06:57:23.280Z,17.80
2022-11-05T07:00:08.697Z,18.73
2022-11-05T07:02:55.260Z,17.35
2022-11-05T07:05:45.774Z,20.08
2022-11-05T07:08:32.131Z,18.13
2022-11-05T07:11:17.696Z,19.23
2022-11-05T07:14:02.355Z,18.45
2022-11-05T07:16:47.276Z,19.70
2022-11-05T07:19:32.344Z,19.88
2022-11-05T07:22:17.192Z,19.38
2022-11-05T07:27:46.394Z,18.85
2022-11-05T07:30:32.923Z,19.27
2022-11-05T07:33:17.428Z,20.65
2022-11-05T07:36:02.616Z,17.83
2022-11-05T07:38:47.595Z,19.08
2022-11-05T07:41:32.665Z,19.70
2022-11-05T07:44:17.536Z,18.88
2022-11-05T07:47:02.354Z,19.30
2022-11-05T07:49:47.287Z,18.73
2022-11-05T07:52:32.739Z,18.48
2022-11-05T07:55:19.317Z,18.83
2022-11-05T07:58:03.980Z,21.58
2022-11-05T08:00:49.013Z,22.38
2022-11-05T08:03:34.405Z,21.42
2022-11-05T08:06:19.292Z,20.83
2022-11-05T08:09:04.333Z,20.70
2022-11-05T08:11:52.827Z,19.10
2022-11-05T08:14:37.720Z,18.67
2022-11-05T08:17:22.779Z,16.17
2022-11-05T08:20:08.494Z,18.05
2022-11-05T08:22:54.240Z,18.17
2022-11-05T08:25:39.675Z,17.10
2022-11-05T08:28:25.738Z,17.27
2022-11-05T08:31:10.544Z,18.05
2022-11-05T08:34:02.189Z,17.77
2022-11-05T08:36:47.447Z,18.50
2022-11-05T08:39:32.573Z,17.55
2022-11-05T08:42:17.908Z,17.40
2022-11-05T08:45:03.301Z,18.33
2022-11-05T08:47:48.045Z,18.30
2022-11-05T08:50:33.786Z,19.95
2022-11-05T08:53:18.713Z,19.67
2022-11-05T08:56:03.627Z,19.27
2022-11-05T08:58:49.125Z,17.25
2022-11-05T09:01:34.377Z,17.45
2022-11-05T09:04:19.861Z,20.58
2022-11-05T09:07:04.489Z,20.55
2022-11-05T09:09:49.427Z,20.05
2022-11-05T09:12:34.491Z,19.35
2022-11-05T09:15:19.578Z,19.75
2022-11-05T09:18:07.628Z,18.95
2022-11-05T09:20:52.441Z,17.20
2022-11-05T09:23:37.259Z,16.58
2022-11-05T09:26:22.343Z,17.40
2022-11-05T09:29:11.653Z,16.42
2022-11-05T09:31:58.941Z,16.92
2022-11-05T09:34:44.367Z,17.27
2022-11-05T09:37:29.159Z,18.40
2022-11-05T09:40:17.551Z,17.00
2022-11-05T09:43:03.871Z,18.05
2022-11-05T09:45:53.419Z,15.68
2022-11-05T09:48:39.534Z,16.02
2022-11-05T09:51:24.488Z,16.35
2022-11-05T09:54:11.415Z,15.23
2022-11-05T09:56:55.976Z,14.63
2022-11-05T10:00:08.906Z,14.95
2022-11-05T10:03:13.256Z,16.38
2022-11-05T10:06:07.786Z,15.40
2022-11-05T10:09:01.290Z,13.30
2022-11-05T10:12:04.116Z,13.63
2022-11-05T10:15:49.550Z,14.63
2022-11-05T10:18:38.799Z,14.40
2022-11-05T10:21:44.314Z,17.77
2022-11-05T10:24:29.328Z,15.77
2022-11-05T10:27:24.823Z,14.32
2022-11-05T10:30:14.675Z,16.40
2022-11-05T10:33:02.582Z,14.73
2022-11-05T10:35:50.571Z,15.90
2022-11-05T10:38:35.676Z,13.40
2022-11-05T10:41:41.893Z,12.57
2022-11-05T10:44:37.095Z,12.40
2022-11-05T10:47:27.988Z,13.10
2022-11-05T10:50:33.594Z,12.75
2022-11-05T10:53:22.784Z,13.23
2022-11-05T10:56:28.010Z,13.75
2022-11-05T10:59:27.753Z,12.55
2022-11-05T11:02:22.406Z,15.00
2022-11-05T11:05:10.329Z,13.40
2022-11-05T11:08:12.852Z,13.90
2022-11-05T11:11:01.612Z,13.25
2022-11-05T11:14:09.352Z,12.45
2022-11-05T11:16:56.990Z,12.60
2022-11-05T11:19:41.633Z,12.57
2022-11-05T11:22:26.402Z,12.65
2022-11-05T11:25:24.361Z,13.50
2022-11-05T11:28:17.896Z,13.57
2022-11-05T11:31:20.811Z,13.52
2022-11-05T11:34:12.233Z,15.60
2022-11-05T11:37:12.919Z,16.48
2022-11-05T11:40:12.391Z,14.40
2022-11-05T11:43:00.870Z,13.32
2022-11-05T11:45:54.288Z,14.80
2022-11-05T11:48:40.561Z,16.25
2022-11-05T11:51:30.149Z,17.80
2022-11-05T11:54:20.621Z,15.52
2022-11-05T11:57:27.636Z,14.25
2022-11-05T12:00:13.759Z,13.50
2022-11-05T12:03:08.689Z,13.68
2022-11-05T12:06:27.804Z,12.57
2022-11-05T12:09:27.991Z,13.57
2022-11-05T12:12:16.344Z,13.10
2022-11-05T12:15:24.509Z,13.52
2022-11-05T12:18:31.227Z,13.80
2022-11-05T12:21:51.416Z,18.75
2022-11-05T12:24:36.433Z,15.00
2022-11-05T12:27:36.291Z,12.88
2022-11-05T12:30:21.623Z,13.50
2022-11-05T12:33:25.354Z,13.38
2022-11-05T12:36:13.971Z,14.05
2022-11-05T12:39:05.040Z,16.13
2022-11-05T12:41:52.726Z,14.73
2022-11-05T12:44:43.692Z,15.45
2022-11-05T12:47:28.543Z,18.38
2022-11-05T12:50:50.515Z,17.92
2022-11-05T12:53:53.060Z,16.67
2022-11-05T12:57:02.934Z,15.63
2022-11-05T13:00:12.485Z,15.65
2022-11-05T13:03:15.916Z,14.02
2022-11-05T13:06:07.136Z,13.70
2022-11-05T13:09:01.748Z,15.10
2022-11-05T13:12:04.513Z,15.43
2022-11-05T13:15:21.304Z,13.98
2022-11-05T13:18:13.866Z,14.07
2022-11-05T13:21:04.752Z,14.38
2022-11-05T13:24:18.231Z,15.07
2022-11-05T13:27:17.733Z,14.50
2022-11-05T13:30:05.455Z,15.63
2022-11-05T13:33:03.519Z,17.52
2022-11-05T13:36:11.381Z,18.20
2022-11-05T13:39:08.554Z,17.33
2022-11-05T13:42:05.434Z,16.58
2022-11-05T13:45:24.089Z,15.65
2022-11-05T13:48:24.220Z,16.48
2022-11-05T13:51:27.652Z,16.90
2022-11-05T13:54:34.315Z,15.45
2022-11-05T13:57:33.433Z,15.70
2022-11-05T14:00:29.379Z,16.58
2022-11-05T14:03:19.909Z,17.33
2022-11-05T14:06:07.799Z,22.13
2022-11-05T14:08:58.148Z,19.17
2022-11-05T14:11:49.989Z,17.80
2022-11-05T14:14:44.785Z,16.73
2022-11-05T14:17:54.622Z,17.13
2022-11-05T14:23:38.446Z,17.30
2022-11-05T14:26:30.841Z,15.57
2022-11-05T14:29:24.334Z,16.42
2022-11-05T14:32:18.281Z,16.10
2022-11-05T14:35:15.083Z,15.00
2022-11-05T14:37:59.871Z,18.27
2022-11-05T14:40:45.682Z,18.52
2022-11-05T14:43:35.576Z,20.05
2022-11-05T14:46:20.511Z,18.10
2022-11-05T14:49:09.491Z,19.83
2022-11-05T14:51:57.942Z,17.20
2022-11-05T14:54:48.385Z,18.70
2022-11-05T14:57:42.319Z,19.15
2022-11-05T15:00:35.898Z,19.58
2022-11-05T15:03:45.951Z,18.38
2022-11-05T15:06:36.330Z,18.13
2022-11-05T15:09:28.951Z,20.00
2022-11-05T15:12:52.512Z,20.33
2022-11-05T15:15:43.875Z,18.92
2022-11-05T15:18:34.486Z,20.38
2022-11-05T15:21:20.890Z,19.48
2022-11-05T15:24:07.804Z,19.17
2022-11-05T15:27:00.655Z,22.52
2022-11-05T15:29:45.642Z,22.33
2022-11-05T15:32:35.896Z,20.85
2022-11-05T15:35:28.920Z,22.83
2022-11-05T15:38:29.772Z,21.48
2022-11-05T15:41:23.684Z,20.77
2022-11-05T15:44:27.569Z,20.98
2022-11-05T15:47:18.217Z,22.10
2022-11-05T15:53:20.636Z,22.05
2022-11-05T15:56:09.918Z,25.63
2022-11-05T15:59:00.352Z,26.45
2022-11-05T16:01:48.347Z,23.83
2022-11-05T16:04:34.358Z,23.98
2022-11-05T16:07:19.276Z,23.58
2022-11-05T16:10:10.032Z,23.77
2022-11-05T16:13:37.106Z,23.25
2022-11-05T16:16:33.221Z,22.50
2022-11-05T16:19:39.821Z,24.42
2022-11-05T16:22:42.967Z,23.67
2022-11-05T16:25:39.559Z,24.20
2022-11-05T16:28:29.508Z,23.63
2022-11-05T16:31:14.375Z,24.48
2022-11-05T16:33:59.576Z,24.65
2022-11-05T16:36:44.428Z,25.13
2022-11-05T16:39:29.377Z,24.20
2022-11-05T16:42:36.544Z,23.83
2022-11-05T16:45:24.480Z,24.20
2022-11-05T16:48:11.965Z,25.27
2022-11-05T16:50:57.128Z,24.75
2022-11-05T16:53:42.367Z,24.52
2022-11-05T16:56:28.147Z,24.38
2022-11-05T16:59:13.168Z,27.65
2022-11-05T17:01:58.512Z,26.77
2022-11-05T17:04:43.345Z,27.30
2022-11-05T17:10:13.303Z,26.85
2022-11-05T17:12:57.842Z,26.17
2022-11-05T17:15:44.975Z,27.98
2022-11-05T17:18:29.882Z,27.58
2022-11-05T17:21:14.835Z,25.60
2022-11-05T17:23:59.512Z,28.58
2022-11-05T17:26:44.501Z,28.65
2022-11-05T17:29:29.445Z,28.90
2022-11-05T17:32:14.272Z,29.17
2022-11-05T17:34:59.297Z,27.02
2022-11-05T17:37:44.462Z,28.00
2022-11-05T17:40:29.759Z,28.55
2022-11-05T17:43:15.293Z,29.52
2022-11-05T17:46:04.565Z,27.10
2022-11-05T17:48:49.427Z,27.15
2022-11-05T17:51:34.441Z,28.33
2022-11-05T17:54:19.351Z,28.15
2022-11-05T17:57:05.148Z,30.08
2022-11-05T17:59:49.594Z,31.05
2022-11-05T18:02:34.872Z,27.83
2022-11-05T18:05:21.208Z,27.20
2022-11-05T18:08:07.026Z,27.42
2022-11-05T18:10:52.260Z,26.80
2022-11-05T18:13:37.102Z,26.38
2022-11-05T18:16:22.250Z,26.00
2022-11-05T18:19:07.243Z,26.70
2022-11-05T18:21:53.146Z,26.95
2022-11-05T18:24:38.176Z,25.13
2022-11-05T18:27:27.047Z,26.98
2022-11-05T18:30:14.667Z,24.48
2022-11-05T18:32:59.520Z,24.17
2022-11-05T18:35:44.833Z,24.05
2022-11-05T18:38:29.650Z,24.52
2022-11-05T18:41:15.957Z,25.45
2022-11-05T18:44:02.561Z,24.00
2022-11-05T18:47:03.938Z,24.50
2022-11-05T18:49:48.636Z,24.83
2022-11-05T18:52:33.746Z,24.13
2022-11-05T18:55:18.959Z,25.55
2022-11-05T18:58:03.554Z,23.30
2022-11-05T19:00:48.539Z,22.73
2022-11-05T19:03:33.549Z,23.27
2022-11-05T19:06:18.404Z,25.33
2022-11-05T19:09:04.857Z,23.30
2022-11-05T19:11:50.315Z,25.23
2022-11-05T19:14:35.517Z,22.48
2022-11-05T19:17:20.247Z,23.00
2022-11-05T19:20:06.611Z,24.55
2022-11-05T19:22:51.334Z,23.58
2022-11-05T19:25:37.348Z,23.52
2022-11-05T19:28:22.812Z,23.45
2022-11-05T19:31:14.284Z,22.40
2022-11-05T19:34:02.407Z,23.88
2022-11-05T19:36:47.130Z,23.88
2022-11-05T19:39:32.255Z,23.42
2022-11-05T19:42:17.017Z,24.10
2022-11-05T19:45:23.066Z,21.73
2022-11-05T19:48:07.628Z,23.48
2022-11-05T19:50:52.906Z,22.23
2022-11-05T19:53:38.466Z,22.77
2022-11-05T19:56:26.184Z,23.52
2022-11-05T19:59:11.423Z,24.33
2022-11-05T20:01:56.212Z,22.98
2022-11-05T20:04:41.087Z,22.55
2022-11-05T20:07:26.743Z,21.20
2022-11-05T20:10:11.360Z,23.30
2022-11-05T20:12:56.322Z,23.27
2022-11-05T20:15:41.262Z,21.52
2022-11-05T20:18:27.133Z,22.67
2022-11-05T20:21:11.641Z,20.65
2022-11-05T20:23:57.066Z,21.35
2022-11-05T20:26:42.291Z,21.70
2022-11-05T20:29:34.732Z,23.20
2022-11-05T20:32:20.115Z,20.27
2022-11-05T20:35:05.410Z,21.17
2022-11-05T20:37:53.996Z,20.27
2022-11-05T20:40:39.293Z,19.95
2022-11-05T20:43:29.150Z,20.15
2022-11-05T20:46:17.583Z,19.15
2022-11-05T20:49:02.757Z,19.27
2022-11-05T20:51:47.547Z,19.80
2022-11-05T20:54:32.473Z,20.35
2022-11-05T20:57:17.432Z,19.35
2022-11-05T21:00:06.467Z,18.73
2022-11-05T21:02:51.338Z,19.05
2022-11-05T21:05:36.026Z,18.30
2022-11-05T21:08:21.857Z,18.92
2022-11-05T21:11:06.704Z,19.15
2022-11-05T21:13:51.532Z,18.38
2022-11-05T21:16:36.415Z,18.63
2022-11-05T21:19:23.328Z,18.50
2022-11-05T21:22:07.937Z,17.58
2022-11-05T21:24:52.834Z,18.02
2022-11-05T21:27:43.292Z,17.35
2022-11-05T21:30:28.286Z,17.10
2022-11-05T21:33:14.835Z,17.70
2022-11-05T21:36:08.929Z,17.08
2022-11-05T21:38:54.085Z,17.95
2022-11-05T21:41:39.320Z,17.88
2022-11-05T21:44:24.445Z,17.17
2022-11-05T21:47:09.341Z,16.20
2022-11-05T21:49:54.174Z,16.17
2022-11-05T21:52:57.974Z,15.90
2022-11-05T21:56:01.411Z,15.88
2022-11-05T21:59:04.873Z,16.27
2022-11-05T22:01:50.563Z,15.48
2022-11-05T22:04:38.103Z,16.17
2022-11-05T22:07:32.037Z,15.35
2022-11-05T22:10:19.066Z,16.60
2022-11-05T22:13:03.755Z,16.08
2022-11-05T22:15:55.938Z,16.63
2022-11-05T22:18:40.800Z,15.07
2022-11-05T22:21:25.722Z,14.88
2022-11-05T22:24:10.898Z,14.73
2022-11-05T22:26:55.969Z,14.73
2022-11-05T22:29:41.004Z,13.93
2022-11-05T22:32:26.104Z,13.73
2022-11-05T22:35:10.769Z,13.48
2022-11-05T22:37:55.636Z,13.60
2022-11-05T22:40:40.834Z,13.95
2022-11-05T22:43:25.920Z,14.38
2022-11-05T22:46:14.212Z,14.40
2022-11-05T22:48:59.704Z,13.70
2022-11-05T22:51:45.050Z,13.13
2022-11-05T22:54:33.853Z,12.02
2022-11-05T22:57:21.570Z,12.50
2022-11-05T23:00:14.287Z,12.50
2022-11-05T23:02:59.100Z,13.25
2022-11-05T23:05:43.916Z,13.18
2022-11-05T23:08:47.348Z,11.70
2022-11-05T23:11:34.947Z,11.13
2022-11-05T23:14:20.228Z,11.30
2022-11-05T23:17:23.088Z,12.27
2022-11-05T23:20:34.517Z,10.73
2022-11-05T23:23:38.114Z,11.27
2022-11-05T23:29:26.730Z,9.85
2022-11-05T23:32:23.755Z,9.77
2022-11-05T23:35:08.865Z,9.32
2022-11-05T23:38:12.554Z,9.52
2022-11-05T23:41:20.173Z,9.68
2022-11-05T23:44:40.243Z,9.48
2022-11-05T23:47:43.447Z,8.63
2022-11-05T23:50:33.105Z,8.88
2022-11-05T23:53:20.561Z,9.13
2022-11-05T23:56:10.495Z,8.85
2022-11-05T23:58:55.045Z,8.45
